Time;durP1;ratioP1;P1;durP2;ratioP2;P2;SDS_P1;SDS_P2;PMS_P1;PMS_P2;Temp;Humidity;BMP_temperature;BMP_pressure;BME280_temperature;BME280_humidity;BME280_pressure;Samples;Min_cycle;Max_cycle;Signal;HPM_P1;HPM_P2
2021/08/23 00:00:51;;;;;;;6.78;4.45;;;;;;;;;;5009355;28;20129;-66
2021/08/23 00:03:17;;;;;;;15.40;4.90;;;;;;;;;;5010824;28;20054;-66
2021/08/23 00:05:44;;;;;;;9.95;5.32;;;;;;;;;;5001770;28;20129;-65
2021/08/23 00:08:11;;;;;;;9.73;5.38;;;;;;;;;;5009356;28;20069;-66
2021/08/23 00:10:38;;;;;;;11.65;6.72;;;;;;;;;;5007060;28;20046;-65
2021/08/23 00:13:04;;;;;;;8.68;5.32;;;;;;;;;;5001007;28;20127;-66
2021/08/23 00:15:40;;;;;;;11.00;6.03;;;;;;;;;;5001383;28;20058;-65
2021/08/23 00:18:07;;;;;;;;;;;;;;;;;;5004649;28;20050;-65
2021/08/23 00:20:43;;;;;;;11.43;5.68;;;;;;;;;;5002202;28;19964;-66
2021/08/23 00:23:13;;;;;;;8.25;5.88;;;;;;;;;;5003666;28;20115;-65
2021/08/23 00:25:40;;;;;;;9.88;5.55;;;;;;;;;;4999757;28;20503;-66
2021/08/23 00:28:08;;;;;;;9.85;6.03;;;;;;;;;;4998481;28;20060;-66
2021/08/23 00:30:40;;;;;;;11.52;5.72;;;;;;;;;;5008578;28;20391;-65
2021/08/23 00:33:07;;;;;;;14.10;5.95;;;;;;;;;;5009977;28;20465;-65
2021/08/23 00:35:33;;;;;;;11.35;5.85;;;;;;;;;;5000841;28;20141;-66
2021/08/23 00:38:00;;;;;;;13.07;5.85;;;;;;;;;;4998345;28;20133;-66
2021/08/23 00:40:29;;;;;;;11.15;6.10;;;;;;;;;;5002545;28;20174;-65
2021/08/23 00:42:57;;;;;;;11.18;6.00;;;;;;;;;;5000435;28;20134;-66
2021/08/23 00:45:23;;;;;;;;;;;;;;;;;;5007692;28;20073;-65
2021/08/23 00:47:50;;;;;;;12.45;6.25;;;;;;;;;;5024465;28;19979;-66
2021/08/23 00:50:17;;;;;;;8.93;6.75;;;;;;;;;;5021307;28;20049;-66
2021/08/23 00:52:44;;;;;;;12.18;6.55;;;;;;;;;;5023538;28;20129;-65
2021/08/23 00:55:11;;;;;;;8.73;5.70;;;;;;;;;;5025674;28;20074;-65
2021/08/23 00:57:40;;;;;;;9.52;5.75;;;;;;;;;;5023696;28;20072;-66
2021/08/23 01:00:06;;;;;;;10.82;5.53;;;;;;;;;;5023189;28;20148;-66
2021/08/23 01:02:41;;;;;;;12.43;6.50;;;;;;;;;;5025181;28;20102;-66
2021/08/23 01:05:13;;;;;;;10.95;6.60;;;;;;;;;;5022440;28;20153;-65
2021/08/23 01:07:50;;;;;;;11.40;5.40;;;;;;;;;;5022127;28;20080;-66
2021/08/23 01:10:22;;;;;;;11.73;5.95;;;;;;;;;;5022742;28;20054;-66
2021/08/23 01:12:49;;;;;;;11.88;6.10;;;;;;;;;;5023657;28;20441;-65
2021/08/23 01:15:16;;;;;;;10.18;5.45;;;;;;;;;;5021165;28;20049;-65
2021/08/23 01:17:42;;;;;;;8.50;5.53;;;;;;;;;;5024642;28;20136;-65
2021/08/23 01:20:09;;;;;;;8.93;5.38;;;;;;;;;;5018841;28;20148;-66
2021/08/23 01:22:46;;;;;;;13.45;6.18;;;;;;;;;;5025228;28;20076;-66
2021/08/23 01:25:33;;;;;;;9.80;5.68;;;;;;;;;;5021209;28;20136;-65
2021/08/23 01:28:16;;;;;;;10.05;5.90;;;;;;;;;;5019422;28;20085;-66
2021/08/23 01:31:01;;;;;;;12.55;6.00;;;;;;;;;;5016912;28;20320;-65
2021/08/23 01:33:28;;;;;;;11.10;6.30;;;;;;;;;;5023715;28;20494;-65
2021/08/23 01:35:55;;;;;;;12.75;6.57;;;;;;;;;;5020207;28;20085;-65
2021/08/23 01:38:21;;;;;;;16.95;7.43;;;;;;;;;;5007696;28;20125;-66
2021/08/23 01:40:56;;;;;;;9.68;6.47;;;;;;;;;;5027099;28;20137;-66
2021/08/23 01:43:23;;;;;;;8.73;5.93;;;;;;;;;;5023378;28;20136;-66
2021/08/23 01:45:50;;;;;;;10.02;6.45;;;;;;;;;;5024839;28;20085;-65
2021/08/23 01:48:26;;;;;;;9.43;6.82;;;;;;;;;;5021986;28;20065;-65
2021/08/23 01:50:53;;;;;;;11.82;7.10;;;;;;;;;;5020597;28;20545;-65
2021/08/23 01:53:19;;;;;;;13.13;7.70;;;;;;;;;;5020498;28;20128;-65
2021/08/23 01:55:46;;;;;;;13.18;7.45;;;;;;;;;;5023846;28;20128;-66
2021/08/23 01:58:14;;;;;;;11.18;7.75;;;;;;;;;;5017450;28;20081;-65
2021/08/23 02:00:40;;;;;;;16.23;7.93;;;;;;;;;;5017411;28;20089;-65
2021/08/23 02:03:07;;;;;;;12.23;6.43;;;;;;;;;;5017567;28;20497;-66
2021/08/23 02:05:34;;;;;;;11.88;5.97;;;;;;;;;;5022691;28;21711;-65
2021/08/23 02:08:00;;;;;;;13.20;6.85;;;;;;;;;;5019984;28;20080;-65
2021/08/23 02:10:27;;;;;;;12.20;5.70;;;;;;;;;;5017733;28;20132;-65
2021/08/23 02:12:54;;;;;;;9.07;6.68;;;;;;;;;;5025093;28;20069;-65
2021/08/23 02:15:20;;;;;;;9.10;6.00;;;;;;;;;;5027479;28;20077;-65
2021/08/23 02:17:47;;;;;;;12.35;7.15;;;;;;;;;;5029085;28;20069;-65
2021/08/23 02:20:14;;;;;;;9.98;6.40;;;;;;;;;;5032109;28;20056;-65
2021/08/23 02:22:41;;;;;;;9.18;6.28;;;;;;;;;;5024570;28;20121;-65
2021/08/23 02:25:08;;;;;;;18.38;8.27;;;;;;;;;;5024595;28;20110;-65
2021/08/23 02:27:35;;;;;;;8.88;6.30;;;;;;;;;;5022847;28;20081;-65
2021/08/23 02:30:02;;;;;;;7.30;5.47;;;;;;;;;;5018705;28;20180;-66
2021/08/23 02:32:33;;;;;;;10.73;7.15;;;;;;;;;;5031353;28;20045;-65
2021/08/23 02:35:00;;;;;;;8.50;5.60;;;;;;;;;;5025549;28;20053;-66
2021/08/23 02:37:26;;;;;;;9.02;5.82;;;;;;;;;;5025800;28;20542;-65
2021/08/23 02:39:53;;;;;;;11.00;6.13;;;;;;;;;;5023281;28;20081;-65
2021/08/23 02:42:20;;;;;;;11.52;5.70;;;;;;;;;;5025819;28;20085;-65
2021/08/23 02:44:46;;;;;;;10.27;5.60;;;;;;;;;;5022940;28;20129;-65
2021/08/23 02:47:13;;;;;;;16.88;7.25;;;;;;;;;;5020089;28;20133;-65
2021/08/23 02:49:39;;;;;;;11.10;6.13;;;;;;;;;;5020129;28;20045;-65
2021/08/23 02:52:06;;;;;;;7.78;5.60;;;;;;;;;;5020787;28;20037;-65
2021/08/23 02:54:32;;;;;;;11.57;7.20;;;;;;;;;;5023705;28;20149;-65
2021/08/23 02:56:59;;;;;;;13.63;6.88;;;;;;;;;;5021125;28;20502;-65
2021/08/23 02:59:26;;;;;;;9.80;6.45;;;;;;;;;;5024740;28;20507;-66
2021/08/23 03:02:02;;;;;;;9.40;5.88;;;;;;;;;;5016577;28;20493;-65
2021/08/23 03:04:29;;;;;;;8.90;5.80;;;;;;;;;;5022266;28;20056;-65
2021/08/23 03:07:01;;;;;;;11.20;6.57;;;;;;;;;;5023823;28;20379;-65
2021/08/23 03:09:53;;;;;;;8.40;5.63;;;;;;;;;;5022545;28;20125;-65
2021/08/23 03:12:20;;;;;;;13.48;7.45;;;;;;;;;;5022035;28;20148;-65
2021/08/23 03:14:46;;;;;;;11.77;5.82;;;;;;;;;;5024759;28;20065;-65
2021/08/23 03:17:23;;;;;;;8.85;5.85;;;;;;;;;;5021134;28;20136;-65
2021/08/23 03:19:55;;;;;;;11.10;6.65;;;;;;;;;;5027639;28;20137;-65
2021/08/23 03:22:21;;;;;;;12.45;7.47;;;;;;;;;;5027098;28;20081;-65
2021/08/23 03:24:48;;;;;;;15.32;7.13;;;;;;;;;;5024295;28;20121;-65
2021/08/23 03:27:18;;;;;;;13.63;7.50;;;;;;;;;;5025088;28;20085;-65
2021/08/23 03:29:53;;;;;;;13.25;8.02;;;;;;;;;;5024220;28;20081;-65
2021/08/23 03:32:19;;;;;;;16.88;7.13;;;;;;;;;;5027588;28;20603;-65
2021/08/23 03:34:46;;;;;;;9.25;6.47;;;;;;;;;;5025246;28;20148;-65
2021/08/23 03:37:12;;;;;;;12.65;7.35;;;;;;;;;;5021776;28;20163;-66
2021/08/23 03:39:39;;;;;;;12.95;6.90;;;;;;;;;;5022586;28;20484;-65
2021/08/23 03:42:05;;;;;;;14.07;7.22;;;;;;;;;;5026559;28;20132;-65
2021/08/23 03:44:32;;;;;;;14.57;6.53;;;;;;;;;;5024322;28;20084;-65
2021/08/23 03:47:14;;;;;;;10.52;5.43;;;;;;;;;;5026415;28;20125;-65
2021/08/23 03:49:41;;;;;;;9.82;5.78;;;;;;;;;;5020620;28;20080;-65
2021/08/23 03:52:07;;;;;;;14.60;7.38;;;;;;;;;;5023535;28;20073;-65
2021/08/23 03:54:34;;;;;;;12.50;6.97;;;;;;;;;;5025278;28;20132;-65
2021/08/23 03:57:06;;;;;;;10.48;6.55;;;;;;;;;;5025178;28;20073;-65
2021/08/23 03:59:33;;;;;;;9.48;6.80;;;;;;;;;;5022808;28;20315;-65
2021/08/23 04:02:00;;;;;;;14.15;6.60;;;;;;;;;;5025839;28;20081;-65
2021/08/23 04:04:26;;;;;;;14.90;7.68;;;;;;;;;;5023359;28;20096;-65
2021/08/23 04:06:53;;;;;;;12.87;7.00;;;;;;;;;;5029701;28;20124;-65
2021/08/23 04:09:20;;;;;;;14.10;6.68;;;;;;;;;;5021569;28;20088;-65
2021/08/23 04:11:46;;;;;;;10.40;6.63;;;;;;;;;;5031818;28;20050;-65
2021/08/23 04:14:23;;;;;;;9.98;6.63;;;;;;;;;;5028935;28;20085;-65
2021/08/23 04:16:50;;;;;;;;;;;;;;;;;;5025664;28;20100;-65
2021/08/23 04:19:16;;;;;;;13.07;7.30;;;;;;;;;;5021881;28;19960;-65
2021/08/23 04:21:45;;;;;;;11.05;7.18;;;;;;;;;;5027513;28;20045;-65
2021/08/23 04:24:12;;;;;;;13.98;7.57;;;;;;;;;;5024560;28;20128;-66
2021/08/23 04:26:38;;;;;;;11.23;6.82;;;;;;;;;;5022260;28;20129;-66
2021/08/23 04:29:05;;;;;;;11.50;6.15;;;;;;;;;;5021757;28;20576;-65
2021/08/23 04:31:31;;;;;;;9.82;5.97;;;;;;;;;;5027602;28;20124;-65
2021/08/23 04:34:02;;;;;;;11.02;6.03;;;;;;;;;;5026160;28;20147;-66
2021/08/23 04:36:28;;;;;;;11.00;6.78;;;;;;;;;;5025923;28;20136;-67
2021/08/23 04:38:55;;;;;;;8.45;5.53;;;;;;;;;;5022087;28;20140;-66
2021/08/23 04:41:21;;;;;;;10.20;6.10;;;;;;;;;;5022697;28;20484;-65
2021/08/23 04:43:48;;;;;;;7.60;4.97;;;;;;;;;;5021870;28;20328;-65
2021/08/23 04:46:17;;;;;;;7.55;5.90;;;;;;;;;;5023478;28;20050;-65
2021/08/23 04:48:44;;;;;;;14.32;5.50;;;;;;;;;;5017440;28;20137;-65
2021/08/23 04:51:11;;;;;;;8.80;5.78;;;;;;;;;;5024712;28;20445;-65
2021/08/23 04:53:37;;;;;;;11.20;5.50;;;;;;;;;;5020226;28;20124;-65
2021/08/23 04:56:14;;;;;;;10.87;5.87;;;;;;;;;;5028684;28;20053;-65
2021/08/23 04:58:40;;;;;;;9.93;5.80;;;;;;;;;;5019134;28;20084;-65
2021/08/23 05:01:07;;;;;;;13.93;5.60;;;;;;;;;;5020734;28;20144;-65
2021/08/23 05:03:34;;;;;;;11.68;5.57;;;;;;;;;;5024342;28;20476;-65
2021/08/23 05:06:03;;;;;;;7.50;4.90;;;;;;;;;;5027751;28;20104;-66
2021/08/23 05:08:30;;;;;;;11.65;4.63;;;;;;;;;;5029391;28;20077;-65
2021/08/23 05:10:56;;;;;;;6.30;4.57;;;;;;;;;;5027632;28;20045;-65
2021/08/23 05:13:29;;;;;;;11.02;5.38;;;;;;;;;;5028906;28;20057;-65
2021/08/23 05:15:56;;;;;;;8.40;5.07;;;;;;;;;;5026089;28;20085;-66
2021/08/23 05:18:23;;;;;;;9.90;5.18;;;;;;;;;;5021230;28;20042;-65
2021/08/23 05:21:02;;;;;;;;;;;;;;;;;;;;;
2021/08/23 05:23:30;;;;;;;7.13;5.07;;;;;;;;;;5016334;28;20077;-65
2021/08/23 05:25:57;;;;;;;13.27;5.78;;;;;;;;;;5024992;28;20054;-65
2021/08/23 05:28:24;;;;;;;7.80;5.75;;;;;;;;;;5023650;28;20084;-65
2021/08/23 05:30:50;;;;;;;9.30;6.03;;;;;;;;;;5023643;28;20132;-65
2021/08/23 05:33:17;;;;;;;8.05;6.40;;;;;;;;;;5023730;28;20077;-65
2021/08/23 05:35:43;;;;;;;8.32;6.45;;;;;;;;;;5025217;28;20132;-65
2021/08/23 05:38:10;;;;;;;11.20;5.95;;;;;;;;;;5025761;28;20662;-65
2021/08/23 05:40:44;;;;;;;14.43;6.43;;;;;;;;;;5024456;28;20136;-65
2021/08/23 05:43:10;;;;;;;8.98;5.45;;;;;;;;;;5025658;28;20090;-65
2021/08/23 05:45:37;;;;;;;8.13;5.93;;;;;;;;;;5020370;28;20065;-65
2021/08/23 05:48:04;;;;;;;12.23;5.88;;;;;;;;;;5024251;28;20106;-65
2021/08/23 05:50:30;;;;;;;15.27;5.63;;;;;;;;;;5023265;28;20133;-65
2021/08/23 05:52:57;;;;;;;10.80;6.22;;;;;;;;;;5020707;28;20057;-65
2021/08/23 05:55:24;;;;;;;9.27;5.18;;;;;;;;;;5024511;28;20107;-65
2021/08/23 05:57:55;;;;;;;7.78;5.18;;;;;;;;;;5022152;28;20060;-65
2021/08/23 06:00:22;;;;;;;10.75;6.50;;;;;;;;;;5022497;28;20157;-65
2021/08/23 06:02:48;;;;;;;9.25;6.70;;;;;;;;;;5024398;28;20049;-65
2021/08/23 06:05:15;;;;;;;15.40;5.95;;;;;;;;;;5022080;28;20137;-65
2021/08/23 06:07:42;;;;;;;10.30;6.00;;;;;;;;;;5026766;28;20084;-65
2021/08/23 06:10:12;;;;;;;8.77;6.28;;;;;;;;;;5022210;28;20132;-65
2021/08/23 06:12:45;;;;;;;7.78;5.88;;;;;;;;;;5017874;28;20053;-65
2021/08/23 06:15:11;;;;;;;9.68;6.80;;;;;;;;;;5021994;28;20057;-65
2021/08/23 06:17:37;;;;;;;15.07;7.20;;;;;;;;;;5021230;28;20143;-65
2021/08/23 06:20:04;;;;;;;10.77;7.55;;;;;;;;;;5022204;28;20120;-65
2021/08/23 06:22:32;;;;;;;10.80;8.55;;;;;;;;;;5027257;28;20136;-65
2021/08/23 06:24:59;;;;;;;13.05;9.02;;;;;;;;;;5023494;28;20081;-65
2021/08/23 06:27:25;;;;;;;11.88;9.10;;;;;;;;;;5030808;28;20172;-65
2021/08/23 06:29:52;;;;;;;12.95;8.73;;;;;;;;;;5024813;28;20157;-65
2021/08/23 06:32:18;;;;;;;10.90;8.00;;;;;;;;;;5025419;28;20088;-65
2021/08/23 06:34:45;;;;;;;11.60;8.30;;;;;;;;;;5021930;28;20085;-65
2021/08/23 06:37:11;;;;;;;9.68;7.78;;;;;;;;;;5024591;28;20128;-65
2021/08/23 06:39:38;;;;;;;7.95;6.65;;;;;;;;;;5020476;28;20120;-65
2021/08/23 06:42:05;;;;;;;10.40;6.57;;;;;;;;;;5022139;28;20057;-65
2021/08/23 06:44:31;;;;;;;9.48;5.60;;;;;;;;;;5024136;28;20121;-65
2021/08/23 06:47:00;;;;;;;7.72;5.28;;;;;;;;;;5024818;28;20049;-65
2021/08/23 06:49:27;;;;;;;9.93;5.57;;;;;;;;;;5019369;28;20132;-65
2021/08/23 06:51:53;;;;;;;8.40;5.40;;;;;;;;;;5025504;28;20132;-65
2021/08/23 06:54:20;;;;;;;7.47;5.00;;;;;;;;;;5025468;28;20144;-65
2021/08/23 06:56:46;;;;;;;7.38;4.47;;;;;;;;;;5021627;28;20141;-65
2021/08/23 06:59:13;;;;;;;7.40;3.80;;;;;;;;;;5017217;28;20226;-65
2021/08/23 07:01:39;;;;;;;7.13;4.10;;;;;;;;;;5021687;28;20077;-65
2021/08/23 07:04:08;;;;;;;10.00;3.67;;;;;;;;;;5023105;28;20049;-65
2021/08/23 07:06:35;;;;;;;5.05;3.83;;;;;;;;;;5025544;28;20104;-65
2021/08/23 07:09:01;;;;;;;6.85;3.85;;;;;;;;;;5019341;28;20050;-65
2021/08/23 07:11:28;;;;;;;7.32;3.88;;;;;;;;;;5018416;28;20042;-65
2021/08/23 07:14:16;;;;;;;4.85;3.30;;;;;;;;;;4947120;28;20055;-65
2021/08/23 07:16:43;;;;;;;9.20;4.20;;;;;;;;;;4951028;28;20075;-65
2021/08/23 07:19:09;;;;;;;7.78;3.97;;;;;;;;;;4948938;28;20576;-65
2021/08/23 07:21:36;;;;;;;7.28;3.72;;;;;;;;;;4952662;28;20078;-65
2021/08/23 07:24:02;;;;;;;14.47;4.20;;;;;;;;;;4949705;28;20046;-65
2021/08/23 07:26:29;;;;;;;7.97;3.58;;;;;;;;;;4948142;28;20326;-65
2021/08/23 07:28:55;;;;;;;9.50;3.97;;;;;;;;;;4948388;28;20082;-65
2021/08/23 07:31:22;;;;;;;13.30;4.40;;;;;;;;;;4961137;28;20129;-65
2021/08/23 07:33:49;;;;;;;10.95;4.03;;;;;;;;;;5024872;28;20053;-65
2021/08/23 07:36:15;;;;;;;10.10;4.07;;;;;;;;;;5024504;28;20068;-65
2021/08/23 07:38:47;;;;;;;8.35;3.88;;;;;;;;;;5020526;28;20144;-65
2021/08/23 07:41:21;;;;;;;9.30;3.90;;;;;;;;;;5020388;28;20498;-65
2021/08/23 07:43:47;;;;;;;8.75;4.28;;;;;;;;;;5021154;28;20152;-65
2021/08/23 07:46:14;;;;;;;9.23;3.83;;;;;;;;;;5014098;28;20149;-65
2021/08/23 07:48:42;;;;;;;5.70;3.00;;;;;;;;;;5017499;28;20498;-65
2021/08/23 07:51:11;;;;;;;6.85;3.58;;;;;;;;;;5020125;28;20132;-65
2021/08/23 07:53:40;;;;;;;9.52;3.80;;;;;;;;;;5025431;28;20124;-65
2021/08/23 07:56:12;;;;;;;8.57;3.35;;;;;;;;;;5022231;28;20049;-65
2021/08/23 07:58:39;;;;;;;9.02;4.00;;;;;;;;;;5020857;28;20125;-65
2021/08/23 08:01:08;;;;;;;6.93;3.33;;;;;;;;;;5017323;28;20050;-65
2021/08/23 08:03:35;;;;;;;9.40;3.35;;;;;;;;;;5021006;28;20060;-65
2021/08/23 08:06:02;;;;;;;7.25;3.40;;;;;;;;;;5024588;28;20086;-65
2021/08/23 08:08:28;;;;;;;7.82;3.38;;;;;;;;;;5020301;28;20156;-65
2021/08/23 08:10:58;;;;;;;8.73;3.53;;;;;;;;;;5027800;28;20049;-64
2021/08/23 08:13:27;;;;;;;7.10;3.72;;;;;;;;;;5027399;28;20062;-65
2021/08/23 08:15:53;;;;;;;7.40;3.72;;;;;;;;;;5023720;28;20049;-65
2021/08/23 08:18:20;;;;;;;6.07;3.17;;;;;;;;;;5025903;28;20528;-65
2021/08/23 08:20:46;;;;;;;5.72;2.60;;;;;;;;;;5021200;28;20050;-65
2021/08/23 08:23:13;;;;;;;5.78;2.90;;;;;;;;;;5026081;28;20088;-65
2021/08/23 08:25:39;;;;;;;6.70;2.97;;;;;;;;;;5025362;28;20128;-64
2021/08/23 08:28:06;;;;;;;9.50;2.80;;;;;;;;;;5027996;28;20104;-62
2021/08/23 08:30:33;;;;;;;5.93;3.00;;;;;;;;;;5027581;28;20140;-62
2021/08/23 08:32:59;;;;;;;7.50;3.17;;;;;;;;;;5019834;28;20272;-62
2021/08/23 08:35:26;;;;;;;8.40;2.80;;;;;;;;;;5020742;28;20525;-62
2021/08/23 08:37:53;;;;;;;6.63;2.50;;;;;;;;;;5034863;28;20132;-62
2021/08/23 08:40:20;;;;;;;6.38;3.10;;;;;;;;;;5028017;28;20110;-62
2021/08/23 08:42:50;;;;;;;7.35;2.95;;;;;;;;;;5023094;28;20069;-62
2021/08/23 08:45:16;;;;;;;5.70;2.72;;;;;;;;;;5020601;28;20468;-62
2021/08/23 08:47:43;;;;;;;8.10;2.75;;;;;;;;;;5028448;28;20175;-62
2021/08/23 08:50:30;;;;;;;8.50;2.95;;;;;;;;;;5021065;28;20056;-62
2021/08/23 08:52:56;;;;;;;6.43;2.40;;;;;;;;;;5028018;28;20080;-62
2021/08/23 08:55:23;;;;;;;6.43;3.25;;;;;;;;;;5025813;28;20042;-62
2021/08/23 08:57:49;;;;;;;7.53;3.42;;;;;;;;;;5023717;28;20089;-62
2021/08/23 09:00:16;;;;;;;7.55;3.15;;;;;;;;;;5027764;28;20586;-62
2021/08/23 09:02:53;;;;;;;8.10;3.35;;;;;;;;;;5026670;28;20080;-62
2021/08/23 09:05:20;;;;;;;6.03;2.53;;;;;;;;;;5027953;28;20140;-62
2021/08/23 09:07:48;;;;;;;7.93;2.80;;;;;;;;;;5033165;28;20072;-62
2021/08/23 09:10:20;;;;;;;6.20;2.53;;;;;;;;;;5025840;28;20049;-62
2021/08/23 09:12:57;;;;;;;6.47;2.53;;;;;;;;;;5027369;28;20084;-62
2021/08/23 09:15:24;;;;;;;7.35;2.50;;;;;;;;;;5025878;28;20088;-62
2021/08/23 09:17:59;;;;;;;5.25;2.60;;;;;;;;;;5032396;28;20083;-62
2021/08/23 09:20:25;;;;;;;4.68;2.72;;;;;;;;;;5025642;28;20084;-62
2021/08/23 09:22:52;;;;;;;4.88;2.30;;;;;;;;;;5028454;28;20137;-62
2021/08/23 09:25:23;;;;;;;5.68;2.30;;;;;;;;;;5023433;28;20129;-62
2021/08/23 09:28:00;;;;;;;3.67;2.15;;;;;;;;;;5022672;28;20517;-62
2021/08/23 09:30:27;;;;;;;5.80;2.33;;;;;;;;;;5025990;28;20084;-65
2021/08/23 09:32:55;;;;;;;4.32;2.50;;;;;;;;;;5032348;28;20072;-65
2021/08/23 09:35:26;;;;;;;6.47;2.67;;;;;;;;;;5025992;28;20069;-65
2021/08/23 09:37:52;;;;;;;4.88;2.53;;;;;;;;;;5028127;28;20481;-65
2021/08/23 09:40:23;;;;;;;8.32;2.63;;;;;;;;;;5022911;28;20080;-64
2021/08/23 09:43:16;;;;;;;4.50;2.35;;;;;;;;;;5024464;28;20479;-64
2021/08/23 09:45:47;;;;;;;4.28;2.22;;;;;;;;;;5025287;28;20152;-65
2021/08/23 09:48:14;;;;;;;4.13;2.40;;;;;;;;;;5022498;28;20103;-65
2021/08/23 09:50:44;;;;;;;5.97;2.93;;;;;;;;;;5024095;28;20073;-65
2021/08/23 09:53:12;;;;;;;4.65;2.58;;;;;;;;;;5026542;28;20288;-65
2021/08/23 09:55:39;;;;;;;4.60;2.55;;;;;;;;;;5022714;28;20076;-65
2021/08/23 09:58:07;;;;;;;5.53;2.70;;;;;;;;;;5023832;28;20136;-65
2021/08/23 10:00:34;;;;;;;6.28;2.60;;;;;;;;;;5022163;28;20080;-65
2021/08/23 10:03:02;;;;;;;6.03;2.88;;;;;;;;;;5026793;28;20049;-65
2021/08/23 10:05:29;;;;;;;5.40;2.80;;;;;;;;;;5024675;28;20070;-65
2021/08/23 10:07:56;;;;;;;6.18;2.92;;;;;;;;;;5018140;28;20524;-65
2021/08/23 10:10:23;;;;;;;4.55;3.00;;;;;;;;;;5017791;28;20041;-65
2021/08/23 10:12:51;;;;;;;4.57;2.80;;;;;;;;;;5023453;28;20136;-62
2021/08/23 10:15:17;;;;;;;4.95;2.72;;;;;;;;;;5018524;28;20136;-63
2021/08/23 10:17:46;;;;;;;4.18;2.70;;;;;;;;;;5025029;28;20061;-62
2021/08/23 10:20:13;;;;;;;3.90;2.33;;;;;;;;;;5023728;28;20045;-62
2021/08/23 10:22:40;;;;;;;;;;;;;;;;;;5025077;28;20128;-62
2021/08/23 10:25:07;;;;;;;5.45;2.47;;;;;;;;;;5026311;28;20037;-62
2021/08/23 10:27:35;;;;;;;3.58;2.35;;;;;;;;;;5022808;28;20137;-62
2021/08/23 10:30:02;;;;;;;4.40;2.38;;;;;;;;;;5023772;28;20501;-62
2021/08/23 10:32:34;;;;;;;4.57;2.63;;;;;;;;;;5022289;28;20077;-62
2021/08/23 10:35:19;;;;;;;3.55;2.42;;;;;;;;;;5021919;28;20144;-62
2021/08/23 10:37:46;;;;;;;3.75;2.50;;;;;;;;;;5006428;28;20042;-62
2021/08/23 10:40:13;;;;;;;6.53;2.92;;;;;;;;;;5021124;28;20133;-63
2021/08/23 10:42:40;;;;;;;5.57;2.83;;;;;;;;;;5018716;28;20077;-62
2021/08/23 10:45:08;;;;;;;3.50;2.45;;;;;;;;;;5024623;28;20147;-62
2021/08/23 10:47:35;;;;;;;6.22;2.90;;;;;;;;;;5024089;28;20136;-63
2021/08/23 10:50:02;;;;;;;4.10;2.90;;;;;;;;;;5022757;28;20111;-62
2021/08/23 10:52:35;;;;;;;3.70;2.40;;;;;;;;;;5021882;28;20053;-62
2021/08/23 10:55:05;;;;;;;4.28;2.63;;;;;;;;;;5019294;28;20133;-62
2021/08/23 10:57:31;;;;;;;3.20;2.67;;;;;;;;;;5022152;28;20144;-62
2021/08/23 11:00:08;;;;;;;7.38;2.83;;;;;;;;;;5025649;28;20132;-62
2021/08/23 11:02:36;;;;;;;4.28;2.70;;;;;;;;;;5023497;28;20054;-62
2021/08/23 11:05:07;;;;;;;;;;;;;;;;;;5026485;28;20420;-62
2021/08/23 11:07:34;;;;;;;9.13;2.88;;;;;;;;;;5024734;28;20024;-62
2021/08/23 11:10:09;;;;;;;4.53;3.38;;;;;;;;;;5021134;28;20057;-62
2021/08/23 11:12:52;;;;;;;4.65;3.15;;;;;;;;;;5015099;28;20081;-62
2021/08/23 11:15:24;;;;;;;5.45;3.15;;;;;;;;;;5022706;28;20543;-62
2021/08/23 11:17:59;;;;;;;5.05;2.92;;;;;;;;;;5019730;28;20133;-62
2021/08/23 11:20:29;;;;;;;4.95;2.70;;;;;;;;;;5025020;28;20077;-64
2021/08/23 11:22:59;;;;;;;6.65;3.15;;;;;;;;;;5024103;28;20053;-62
2021/08/23 11:25:45;;;;;;;5.93;3.25;;;;;;;;;;5023461;28;20132;-62
2021/08/23 11:28:13;;;;;;;6.13;3.05;;;;;;;;;;5022994;28;20087;-63
2021/08/23 11:30:40;;;;;;;6.45;3.40;;;;;;;;;;5023413;28;20547;-62
2021/08/23 11:33:07;;;;;;;;;;;;;;;;;;5020804;28;20101;-62
2021/08/23 11:35:35;;;;;;;;;;;;;;;;;;5020927;28;20368;-62
2021/08/23 11:38:04;;;;;;;4.53;3.00;;;;;;;;;;5022926;28;20012;-62
2021/08/23 11:40:31;;;;;;;5.32;3.10;;;;;;;;;;5024608;28;20465;-62
2021/08/23 11:42:59;;;;;;;3.95;2.80;;;;;;;;;;5023457;28;20057;-62
2021/08/23 11:45:25;;;;;;;;;;;;;;;;;;5025165;28;20133;-62
2021/08/23 11:47:52;;;;;;;4.32;3.20;;;;;;;;;;5027443;28;19979;-62
2021/08/23 11:50:20;;;;;;;4.00;2.83;;;;;;;;;;5025391;28;20052;-62
2021/08/23 11:52:50;;;;;;;4.47;2.95;;;;;;;;;;5023667;28;20132;-62
2021/08/23 11:55:27;;;;;;;5.03;3.50;;;;;;;;;;5022652;28;20473;-62
2021/08/23 11:58:14;;;;;;;9.10;3.50;;;;;;;;;;5029885;28;20257;-62
2021/08/23 12:00:42;;;;;;;6.32;3.70;;;;;;;;;;5024370;28;20081;-62
2021/08/23 12:03:16;;;;;;;6.07;4.00;;;;;;;;;;5031364;28;20058;-62
2021/08/23 12:05:43;;;;;;;5.13;3.90;;;;;;;;;;5022866;28;20132;-62
2021/08/23 12:08:09;;;;;;;;;;;;;;;;;;5023061;28;20136;-62
2021/08/23 12:10:37;;;;;;;5.78;3.42;;;;;;;;;;5026183;28;19968;-62
2021/08/23 12:13:10;;;;;;;9.65;3.60;;;;;;;;;;5026208;28;20092;-62
2021/08/23 12:15:57;;;;;;;9.48;3.85;;;;;;;;;;5021730;28;20111;-62
2021/08/23 12:18:29;;;;;;;5.97;3.55;;;;;;;;;;5022105;28;20112;-62
2021/08/23 12:21:06;;;;;;;5.53;3.17;;;;;;;;;;5023200;28;20506;-62
2021/08/23 12:23:50;;;;;;;6.07;3.53;;;;;;;;;;5023618;28;20123;-62
2021/08/23 12:26:26;;;;;;;4.18;3.13;;;;;;;;;;5028366;28;20083;-62
2021/08/23 12:28:55;;;;;;;4.13;3.03;;;;;;;;;;5027213;28;20077;-62
2021/08/23 12:31:21;;;;;;;6.95;3.40;;;;;;;;;;5027447;28;20154;-62
2021/08/23 12:33:48;;;;;;;5.40;3.20;;;;;;;;;;5026356;28;20049;-62
2021/08/23 12:36:14;;;;;;;7.97;3.60;;;;;;;;;;5025641;28;20412;-62
2021/08/23 12:38:43;;;;;;;6.45;3.53;;;;;;;;;;5021792;28;20400;-62
2021/08/23 12:41:11;;;;;;;5.85;3.30;;;;;;;;;;5025688;28;20085;-62
2021/08/23 12:43:37;;;;;;;;;;;;;;;;;;5028898;28;20052;-62
2021/08/23 12:46:04;;;;;;;5.25;3.42;;;;;;;;;;5025591;28;20012;-63
2021/08/23 12:48:31;;;;;;;6.85;3.95;;;;;;;;;;5028352;28;20132;-62
2021/08/23 12:51:01;;;;;;;4.28;3.35;;;;;;;;;;5022074;28;20124;-62
2021/08/23 12:53:27;;;;;;;6.38;3.53;;;;;;;;;;5030942;28;20079;-62
2021/08/23 12:55:54;;;;;;;5.20;3.60;;;;;;;;;;5024367;28;20075;-62
2021/08/23 12:58:21;;;;;;;6.93;4.00;;;;;;;;;;5019351;28;20149;-62
2021/08/23 13:00:49;;;;;;;4.83;3.50;;;;;;;;;;5021199;28;20129;-62
2021/08/23 13:03:16;;;;;;;6.13;3.90;;;;;;;;;;5022297;28;20061;-62
2021/08/23 13:05:43;;;;;;;4.17;3.30;;;;;;;;;;5019818;28;20492;-62
2021/08/23 13:08:10;;;;;;;;;;;;;;;;;;5022952;28;20289;-62
2021/08/23 13:10:42;;;;;;;4.28;3.47;;;;;;;;;;5021145;28;20020;-62
2021/08/23 13:13:10;;;;;;;5.25;3.80;;;;;;;;;;5023533;28;20072;-62
2021/08/23 13:15:37;;;;;;;5.22;3.90;;;;;;;;;;5016283;28;20137;-62
2021/08/23 13:18:04;;;;;;;17.05;4.22;;;;;;;;;;5022330;28;20441;-62
2021/08/23 13:20:30;;;;;;;7.72;4.30;;;;;;;;;;5025328;28;20475;-62
2021/08/23 13:23:02;;;;;;;6.55;4.00;;;;;;;;;;5023444;28;20081;-63
2021/08/23 13:25:29;;;;;;;5.20;3.60;;;;;;;;;;5027636;28;20080;-62
2021/08/23 13:27:55;;;;;;;6.13;4.10;;;;;;;;;;5027322;28;20136;-63
2021/08/23 13:30:22;;;;;;;9.07;4.00;;;;;;;;;;5023534;28;20133;-63
2021/08/23 13:32:48;;;;;;;6.50;4.10;;;;;;;;;;5022387;28;20067;-63
2021/08/23 13:35:15;;;;;;;6.80;4.22;;;;;;;;;;5022976;28;20428;-63
2021/08/23 13:37:42;;;;;;;6.00;4.20;;;;;;;;;;5027463;28;20073;-63
2021/08/23 13:40:08;;;;;;;5.18;3.75;;;;;;;;;;5023622;28;20060;-63
2021/08/23 13:42:36;;;;;;;8.40;4.53;;;;;;;;;;5019645;28;20137;-63
2021/08/23 13:45:03;;;;;;;6.50;4.25;;;;;;;;;;5019007;28;20128;-63
2021/08/23 13:47:30;;;;;;;5.88;4.30;;;;;;;;;;5021268;28;20486;-63
2021/08/23 13:49:56;;;;;;;6.80;4.37;;;;;;;;;;5021684;28;20132;-63
2021/08/23 13:52:23;;;;;;;5.75;4.57;;;;;;;;;;5022864;28;20351;-63
2021/08/23 13:54:50;;;;;;;6.03;4.53;;;;;;;;;;5024823;28;20132;-63
2021/08/23 13:57:16;;;;;;;5.63;4.32;;;;;;;;;;5028188;28;20169;-62
2021/08/23 13:59:43;;;;;;;7.80;4.07;;;;;;;;;;5025473;28;20045;-63
2021/08/23 14:02:09;;;;;;;5.53;4.50;;;;;;;;;;5016499;28;20721;-63
2021/08/23 14:04:38;;;;;;;7.05;4.50;;;;;;;;;;5026777;28;20057;-63
2021/08/23 14:07:04;;;;;;;6.18;4.45;;;;;;;;;;5027619;28;20073;-63
2021/08/23 14:09:31;;;;;;;8.38;4.43;;;;;;;;;;5019879;28;20073;-63
2021/08/23 14:11:57;;;;;;;8.07;4.77;;;;;;;;;;5018717;28;20099;-63
2021/08/23 14:14:24;;;;;;;5.43;4.10;;;;;;;;;;5017864;28;20058;-63
2021/08/23 14:16:51;;;;;;;6.23;4.30;;;;;;;;;;5019834;28;20473;-63
2021/08/23 14:19:17;;;;;;;5.68;3.95;;;;;;;;;;5022304;28;20558;-63
2021/08/23 14:21:44;;;;;;;7.35;3.88;;;;;;;;;;5018522;28;20132;-63
2021/08/23 14:24:11;;;;;;;7.82;4.18;;;;;;;;;;5023880;28;20088;-63
2021/08/23 14:26:40;;;;;;;8.40;4.57;;;;;;;;;;5024391;28;20049;-63
2021/08/23 14:29:06;;;;;;;6.57;4.65;;;;;;;;;;5020239;28;20085;-63
2021/08/23 14:31:33;;;;;;;6.30;4.27;;;;;;;;;;5026514;28;20046;-63
2021/08/23 14:34:00;;;;;;;6.57;4.40;;;;;;;;;;5019917;28;20460;-63
2021/08/23 14:36:26;;;;;;;8.93;4.82;;;;;;;;;;5022940;28;20124;-63
2021/08/23 14:38:53;;;;;;;6.83;4.73;;;;;;;;;;5022616;28;20552;-63
2021/08/23 14:41:19;;;;;;;6.80;4.18;;;;;;;;;;5023138;28;20052;-63
2021/08/23 14:43:46;;;;;;;8.35;4.00;;;;;;;;;;5019019;28;20139;-63
2021/08/23 14:46:13;;;;;;;5.68;3.70;;;;;;;;;;5018194;28;20089;-63
2021/08/23 14:48:43;;;;;;;6.50;3.88;;;;;;;;;;5025588;28;20085;-63
2021/08/23 14:51:13;;;;;;;6.50;4.10;;;;;;;;;;5023452;28;20045;-63